createdAt,value
2024-03-16T00:00:52.556Z,100310.88
2024-03-16T00:03:20.663Z,100303.97
2024-03-16T00:05:47.998Z,100303.88
2024-03-16T00:08:15.364Z,100300.56
2024-03-16T00:10:42.704Z,100296.16
2024-03-16T00:13:10.105Z,100302.44
2024-03-16T00:15:37.465Z,100294.19
2024-03-16T00:18:04.977Z,100291.06
2024-03-16T00:20:32.423Z,100294.19
2024-03-16T00:22:59.817Z,100295.97
2024-03-16T00:25:27.189Z,100294.06
2024-03-16T00:27:54.616Z,100292.22
2024-03-16T00:30:21.916Z,100288.09
2024-03-16T00:32:49.302Z,100292.53
2024-03-16T00:35:16.734Z,100295.06
2024-03-16T00:37:44.063Z,100290.75
2024-03-16T00:40:11.754Z,100292.31
2024-03-16T00:42:39.103Z,100289.84
2024-03-16T00:45:06.714Z,100295.19
2024-03-16T00:47:34.110Z,100296.16
2024-03-16T00:50:01.412Z,100292.63
2024-03-16T00:52:28.951Z,100290.09
2024-03-16T00:54:57.868Z,100290.38
2024-03-16T00:57:25.214Z,100284.31
2024-03-16T00:59:52.630Z,100282.53
2024-03-16T01:02:19.920Z,100292.28
2024-03-16T01:04:47.349Z,100285.53
2024-03-16T01:07:16.344Z,100283.53
2024-03-16T01:09:43.773Z,100288.63
2024-03-16T01:12:11.160Z,100278.44
2024-03-16T01:14:38.429Z,100284.41
2024-03-16T01:17:05.879Z,100282.66
2024-03-16T01:19:33.308Z,100287.53
2024-03-16T01:22:00.639Z,100292.63
2024-03-16T01:24:28.024Z,100284.22
2024-03-16T01:26:55.400Z,100289.31
2024-03-16T01:29:23.300Z,100285.97
2024-03-16T01:31:50.576Z,100291.06
2024-03-16T01:34:18.058Z,100295.38
2024-03-16T01:36:45.390Z,100298.78
2024-03-16T01:39:13.997Z,100294.81
2024-03-16T01:41:44.129Z,100296.88
2024-03-16T01:44:12.229Z,100293.00
2024-03-16T01:46:40.796Z,100294.28
2024-03-16T01:49:09.331Z,100286.84
2024-03-16T01:51:37.543Z,100285.31
2024-03-16T01:54:05.778Z,100298.91
2024-03-16T01:56:33.417Z,100291.94
2024-03-16T01:59:01.205Z,100294.28
2024-03-16T02:01:29.270Z,100300.34
2024-03-16T02:03:59.061Z,100291.41
2024-03-16T02:06:28.454Z,100293.00
2024-03-16T02:08:55.942Z,100300.63
2024-03-16T02:11:23.604Z,100297.38
2024-03-16T02:13:50.986Z,100291.66
2024-03-16T02:16:18.777Z,100287.53
2024-03-16T02:18:46.247Z,100294.97
2024-03-16T02:21:13.602Z,100284.78
2024-03-16T02:23:41.081Z,100281.94
2024-03-16T02:26:12.556Z,100283.69
2024-03-16T02:28:40.107Z,100287.47
2024-03-16T02:31:07.725Z,100283.75
2024-03-16T02:33:36.663Z,100288.63
2024-03-16T02:36:05.225Z,100283.09
2024-03-16T02:38:32.524Z,100281.56
2024-03-16T02:40:59.899Z,100276.59
2024-03-16T02:43:27.316Z,100281.34
2024-03-16T02:45:54.684Z,100278.41
2024-03-16T02:48:22.115Z,100280.03
2024-03-16T02:50:49.368Z,100273.00
2024-03-16T02:53:16.775Z,100273.88
2024-03-16T02:55:44.115Z,100273.00
2024-03-16T02:58:11.535Z,100272.41
2024-03-16T03:00:39.049Z,100268.44
2024-03-16T03:03:08.405Z,100273.25
2024-03-16T03:05:35.822Z,100276.44
2024-03-16T03:08:03.235Z,100279.56
2024-03-16T03:10:30.574Z,100271.25
2024-03-16T03:12:58.442Z,100275.56
2024-03-16T03:15:25.828Z,100278.22
2024-03-16T03:17:53.303Z,100274.03
2024-03-16T03:20:22.356Z,100276.66
2024-03-16T03:22:51.136Z,100280.63
2024-03-16T03:25:20.214Z,100274.06
2024-03-16T03:27:47.552Z,100277.28
2024-03-16T03:30:14.847Z,100272.47
2024-03-16T03:32:42.235Z,100273.69
2024-03-16T03:35:09.634Z,100278.91
2024-03-16T03:37:36.989Z,100277.25
2024-03-16T03:40:06.063Z,100278.81
2024-03-16T03:42:35.334Z,100276.00
2024-03-16T03:45:26.165Z,100275.50
2024-03-16T03:48:04.757Z,100277.09
2024-03-16T03:50:34.365Z,100278.69
2024-03-16T03:53:03.756Z,100281.25
2024-03-16T03:55:31.463Z,100282.69
2024-03-16T03:57:58.991Z,100282.91
2024-03-16T04:00:26.402Z,100283.41
2024-03-16T04:02:53.721Z,100286.56
2024-03-16T04:05:21.206Z,100274.03
2024-03-16T04:07:48.547Z,100281.75
2024-03-16T04:10:15.857Z,100278.31
2024-03-16T04:12:43.509Z,100278.63
2024-03-16T04:15:10.863Z,100279.53
2024-03-16T04:17:38.395Z,100280.72
2024-03-16T04:20:13.839Z,100280.91
2024-03-16T04:22:41.394Z,100282.66
2024-03-16T04:25:10.676Z,100287.28
2024-03-16T04:27:38.181Z,100287.78
2024-03-16T04:30:08.898Z,100292.78
2024-03-16T04:32:36.972Z,100286.28
2024-03-16T04:35:05.907Z,100293.38
2024-03-16T04:37:37.602Z,100301.28
2024-03-16T04:40:06.215Z,100293.97
2024-03-16T04:42:33.851Z,100294.13
2024-03-16T04:45:01.253Z,100300.34
2024-03-16T04:47:28.649Z,100298.97
2024-03-16T04:49:55.961Z,100290.22
2024-03-16T04:52:23.450Z,100290.53
2024-03-16T04:54:50.802Z,100292.47
2024-03-16T04:57:19.961Z,100289.84
2024-03-16T04:59:47.482Z,100292.78
2024-03-16T05:02:14.767Z,100299.94
2024-03-16T05:04:42.168Z,100298.97
2024-03-16T05:07:09.620Z,100301.53
2024-03-16T05:09:38.260Z,100293.66
2024-03-16T05:12:05.818Z,100296.03
2024-03-16T05:14:33.150Z,100291.13
2024-03-16T05:17:00.599Z,100289.94
2024-03-16T05:19:27.928Z,100297.66
2024-03-16T05:21:55.323Z,100289.44
2024-03-16T05:24:22.954Z,100295.81
2024-03-16T05:26:50.315Z,100303.09
2024-03-16T05:29:17.608Z,100302.41
2024-03-16T05:31:56.441Z,100296.41
2024-03-16T05:34:23.790Z,100296.41
2024-03-16T05:36:51.226Z,100298.09
2024-03-16T05:39:18.964Z,100301.53
2024-03-16T05:41:46.338Z,100299.84
2024-03-16T05:44:13.715Z,100295.22
2024-03-16T05:46:41.027Z,100299.03
2024-03-16T05:49:08.390Z,100298.56
2024-03-16T05:51:35.742Z,100305.31
2024-03-16T05:54:05.529Z,100306.22
2024-03-16T05:56:33.990Z,100302.25
2024-03-16T05:59:01.467Z,100299.13
2024-03-16T06:01:28.895Z,100305.81
2024-03-16T06:03:56.757Z,100312.16
2024-03-16T06:06:24.160Z,100309.19
2024-03-16T06:08:51.582Z,100310.66
2024-03-16T06:11:19.027Z,100311.03
2024-03-16T06:13:46.581Z,100308.56
2024-03-16T06:16:13.946Z,100310.69
2024-03-16T06:18:48.357Z,100318.34
2024-03-16T06:21:15.879Z,100315.47
2024-03-16T06:23:43.878Z,100314.47
2024-03-16T06:26:18.375Z,100311.91
2024-03-16T06:28:48.474Z,100315.47
2024-03-16T06:31:15.980Z,100314.25
2024-03-16T06:33:46.931Z,100311.78
2024-03-16T06:36:14.376Z,100312.25
2024-03-16T06:38:43.501Z,100307.75
2024-03-16T06:41:11.656Z,100315.16
2024-03-16T06:43:39.830Z,100312.53
2024-03-16T06:46:09.588Z,100316.56
2024-03-16T06:48:36.905Z,100312.53
2024-03-16T06:51:04.432Z,100308.47
2024-03-16T06:53:32.300Z,100304.06
2024-03-16T06:55:59.596Z,100306.88
2024-03-16T06:58:27.090Z,100311.19
2024-03-16T07:00:54.489Z,100307.25
2024-03-16T07:03:21.848Z,100312.63
2024-03-16T07:09:57.387Z,100306.81
2024-03-16T07:12:39.870Z,100304.25
2024-03-16T07:15:09.289Z,100300.13
2024-03-16T07:17:36.755Z,100307.19
2024-03-16T07:20:04.275Z,100302.66
2024-03-16T07:22:32.071Z,100304.44
2024-03-16T07:24:59.456Z,100297.03
2024-03-16T07:27:27.129Z,100305.56
2024-03-16T07:29:54.380Z,100310.84
2024-03-16T07:32:21.914Z,100307.16
2024-03-16T07:34:49.695Z,100302.56
2024-03-16T07:37:18.102Z,100310.28
2024-03-16T07:39:45.553Z,100309.53
2024-03-16T07:42:12.920Z,100306.00
2024-03-16T07:44:42.037Z,100311.34
2024-03-16T07:47:09.733Z,100315.22
2024-03-16T07:49:37.041Z,100300.88
2024-03-16T07:52:05.148Z,100304.72
2024-03-16T07:54:32.629Z,100303.28
2024-03-16T07:57:00.187Z,100306.63
2024-03-16T07:59:27.601Z,100306.63
2024-03-16T08:01:55.159Z,100311.56
2024-03-16T08:04:22.623Z,100299.91
2024-03-16T08:06:50.108Z,100299.75
2024-03-16T08:09:17.619Z,100298.81
2024-03-16T08:11:44.923Z,100291.41
2024-03-16T08:14:12.700Z,100293.28
2024-03-16T08:16:40.052Z,100291.84
2024-03-16T08:19:07.535Z,100286.13
2024-03-16T08:21:34.995Z,100284.25
2024-03-16T08:24:02.586Z,100285.50
2024-03-16T08:26:29.931Z,100281.00
2024-03-16T08:28:57.275Z,100274.66
2024-03-16T08:31:24.799Z,100278.63
2024-03-16T08:33:52.188Z,100279.81
2024-03-16T08:36:19.538Z,100262.50
2024-03-16T08:38:47.066Z,100270.31
2024-03-16T08:41:14.766Z,100272.09
2024-03-16T08:43:42.054Z,100276.38
2024-03-16T08:46:09.491Z,100279.00
2024-03-16T08:48:36.883Z,100271.16
2024-03-16T08:51:05.913Z,100275.66
2024-03-16T08:53:33.442Z,100283.06
2024-03-16T08:56:02.645Z,100279.94
2024-03-16T08:58:30.952Z,100275.34
2024-03-16T09:00:59.978Z,100282.97
2024-03-16T09:03:27.905Z,100285.75
2024-03-16T09:05:55.542Z,100282.59
2024-03-16T09:08:22.876Z,100277.25
2024-03-16T09:10:50.220Z,100270.88
2024-03-16T09:13:17.552Z,100271.28
2024-03-16T09:15:45.239Z,100262.19
2024-03-16T09:18:13.377Z,100260.63
2024-03-16T09:20:45.089Z,100258.03
2024-03-16T09:23:14.944Z,100256.81
2024-03-16T09:25:44.440Z,100255.84
2024-03-16T09:28:15.039Z,100252.63
2024-03-16T09:30:46.591Z,100249.06
2024-03-16T09:33:14.233Z,100256.66
2024-03-16T09:35:43.299Z,100249.88
2024-03-16T09:38:11.486Z,100240.66
2024-03-16T09:40:44.926Z,100232.84
